createdAt,value
2022-08-23T00:01:26.689Z,29.40726
2022-08-23T00:06:31.425Z,32.22435
2022-08-23T00:11:32.995Z,31.19407
2022-08-23T00:16:34.606Z,33.01894
2022-08-23T00:21:36.215Z,31.31219
2022-08-23T00:26:37.930Z,33.26369
2022-08-23T00:31:39.535Z,34.95348
2022-08-23T00:36:41.288Z,32.17257
2022-08-23T00:41:42.887Z,33.60506
2022-08-23T00:46:44.534Z,33.97456
2022-08-23T00:51:53.114Z,31.91604
2022-08-23T00:56:55.226Z,32.75959
2022-08-23T01:01:56.881Z,36.06921
2022-08-23T01:06:58.650Z,35.92201
2022-08-23T01:12:00.266Z,33.44196
2022-08-23T01:17:01.887Z,33.74563
2022-08-23T01:22:03.510Z,34.98595
2022-08-23T01:27:05.134Z,35.99034
2022-08-23T01:32:06.900Z,34.83042
2022-08-23T01:37:08.457Z,38.54594
2022-08-23T01:42:10.248Z,36.45489
2022-08-23T01:47:11.833Z,36.5392
2022-08-23T01:52:13.461Z,36.09228
2022-08-23T01:57:15.081Z,36.17351
2022-08-23T02:02:16.685Z,35.19572
2022-08-23T02:07:18.338Z,36.11952
2022-08-23T02:12:20.172Z,35.84308
2022-08-23T02:17:21.814Z,35.3524
2022-08-23T02:22:23.489Z,35.13102
2022-08-23T02:27:25.080Z,35.79334
2022-08-23T02:32:27.100Z,38.46659
2022-08-23T02:37:28.926Z,43.40223
2022-08-23T02:42:30.528Z,39.48987
2022-08-23T02:47:32.174Z,39.45474
2022-08-23T02:52:33.894Z,43.40855
2022-08-23T02:57:35.770Z,46.21427
2022-08-23T03:02:37.408Z,40.47394
2022-08-23T03:07:39.035Z,39.66211
2022-08-23T03:12:40.844Z,47.41688
2022-08-23T03:17:42.446Z,41.88068
2022-08-23T03:22:54.270Z,40.10772
2022-08-23T03:27:56.620Z,40.73791
2022-08-23T03:32:58.216Z,39.50651
2022-08-23T03:37:59.936Z,42.41244
2022-08-23T03:43:01.634Z,45.00765
2022-08-23T03:48:03.240Z,41.84337
2022-08-23T03:53:04.838Z,44.20661
2022-08-23T03:58:06.452Z,43.23804
2022-08-23T04:03:08.095Z,44.48276
2022-08-23T04:08:09.703Z,44.38053
2022-08-23T04:13:11.485Z,41.64562
2022-08-23T04:18:13.167Z,40.3254
2022-08-23T04:23:14.754Z,41.33736
2022-08-23T04:28:16.328Z,43.46326
2022-08-23T04:33:18.286Z,40.78511
2022-08-23T04:38:24.965Z,42.19783
2022-08-23T04:43:26.882Z,45.00263
2022-08-23T04:48:28.496Z,41.96423
2022-08-23T04:53:30.131Z,50.70063
2022-08-23T04:58:31.759Z,48.35967
2022-08-23T05:03:33.530Z,45.52654
2022-08-23T05:08:35.150Z,42.70629
2022-08-23T05:13:36.715Z,43.64398
2022-08-23T05:18:38.309Z,43.80065
2022-08-23T05:23:39.992Z,43.4475
2022-08-23T05:28:42.274Z,44.89302
2022-08-23T05:33:43.871Z,43.98618
2022-08-23T05:38:45.456Z,44.87569
2022-08-23T05:43:48.017Z,56.05197
2022-08-23T05:48:50.091Z,49.24507
2022-08-23T05:53:51.835Z,47.8272
2022-08-23T05:58:56.615Z,46.20124
2022-08-23T06:04:01.374Z,46.71832
2022-08-23T06:09:02.970Z,48.00502
2022-08-23T06:14:04.740Z,46.08432
2022-08-23T06:19:06.383Z,45.79616
2022-08-23T06:24:07.996Z,48.04765
2022-08-23T06:29:09.791Z,46.56293
2022-08-23T06:34:11.460Z,51.92531
2022-08-23T06:39:13.136Z,49.04654
2022-08-23T06:44:14.759Z,52.81432
2022-08-23T06:49:16.369Z,54.22159
2022-08-23T06:54:17.976Z,48.98366
2022-08-23T06:59:19.874Z,49.72789
2022-08-23T07:04:21.479Z,47.52236
2022-08-23T07:09:23.083Z,51.34205
2022-08-23T07:14:24.673Z,50.26622
2022-08-23T07:19:29.286Z,50.25576
2022-08-23T07:24:33.507Z,47.85285
2022-08-23T07:29:35.590Z,49.45486
2022-08-23T07:34:37.226Z,47.85643
2022-08-23T07:39:38.819Z,57.86831
2022-08-23T07:44:42.447Z,55.87909
2022-08-23T07:49:44.613Z,53.12706
2022-08-23T07:54:48.258Z,52.17709
2022-08-23T07:59:50.342Z,49.51426
2022-08-23T08:04:51.987Z,57.57027
2022-08-23T08:09:53.599Z,52.3385
2022-08-23T08:14:56.501Z,50.49677
2022-08-23T08:19:58.139Z,52.79315
2022-08-23T08:24:59.770Z,58.23016
2022-08-23T08:30:01.408Z,53.44669
2022-08-23T08:35:03.134Z,52.60263
2022-08-23T08:40:05.023Z,65.21476
2022-08-23T08:45:06.658Z,60.00938
2022-08-23T08:50:09.771Z,53.0068
2022-08-23T08:55:11.489Z,50.73712
2022-08-23T09:00:13.056Z,53.05416
2022-08-23T09:05:14.672Z,54.53152
2022-08-23T09:10:16.281Z,54.29006
2022-08-23T09:15:17.904Z,56.10543
2022-08-23T09:20:19.513Z,51.26709
2022-08-23T09:25:21.150Z,54.24095
2022-08-23T09:30:22.980Z,58.62089
2022-08-23T09:35:24.716Z,51.08603
2022-08-23T09:40:26.336Z,51.64986
2022-08-23T09:45:29.786Z,51.31768
2022-08-23T09:50:35.076Z,54.43105
2022-08-23T09:55:36.669Z,57.18143
2022-08-23T10:00:38.419Z,53.55404
2022-08-23T10:05:39.989Z,55.96316
2022-08-23T10:10:41.554Z,63.04769
2022-08-23T10:15:45.481Z,54.33918
2022-08-23T10:20:47.328Z,58.32105
2022-08-23T10:25:48.932Z,54.45141
2022-08-23T10:30:50.684Z,52.63989
2022-08-23T10:35:52.336Z,52.0029
2022-08-23T10:40:53.980Z,55.22009
2022-08-23T10:46:00.090Z,57.11146
2022-08-23T10:51:02.173Z,62.82634
2022-08-23T10:56:03.855Z,57.29917
2022-08-23T11:01:05.463Z,57.63746
2022-08-23T11:06:07.091Z,56.8534
2022-08-23T11:11:08.756Z,60.12168
2022-08-23T11:16:10.382Z,55.75439
2022-08-23T11:21:11.993Z,58.88245
2022-08-23T11:26:13.566Z,56.58462
2022-08-23T11:31:15.245Z,64.09804
2022-08-23T11:36:16.850Z,74.07475
2022-08-23T11:41:18.432Z,63.78824
2022-08-23T11:46:20.080Z,58.34285
2022-08-23T11:51:22.619Z,58.69962
2022-08-23T11:56:24.191Z,64.51056
2022-08-23T12:01:25.836Z,59.38277
2022-08-23T12:06:27.426Z,57.49855
2022-08-23T12:11:29.037Z,64.45328
2022-08-23T12:16:30.714Z,58.86031
2022-08-23T12:21:32.499Z,59.28767
2022-08-23T12:26:35.277Z,60.49032
2022-08-23T12:31:37.053Z,57.01352
2022-08-23T12:36:38.711Z,57.90384
2022-08-23T12:41:40.348Z,57.92278
2022-08-23T12:46:42.059Z,57.01642
2022-08-23T12:51:43.707Z,63.34509
2022-08-23T12:56:45.319Z,56.39727
2022-08-23T13:01:46.974Z,56.30093
2022-08-23T13:06:49.567Z,55.93369
2022-08-23T13:11:51.335Z,60.03206
2022-08-23T13:16:52.912Z,56.25483
2022-08-23T13:21:56.416Z,55.85593
2022-08-23T13:26:58.421Z,56.74317
2022-08-23T13:32:03.427Z,62.58899
2022-08-23T13:37:07.530Z,58.28864
2022-08-23T13:42:09.083Z,60.7356
2022-08-23T13:47:10.667Z,60.6045
2022-08-23T13:52:41.678Z,62.22851
2022-08-23T13:57:58.216Z,60.10556
2022-08-23T14:03:00.037Z,67.65533
2022-08-23T14:08:01.781Z,65.89819
2022-08-23T14:13:03.566Z,67.90409
2022-08-23T14:18:05.452Z,66.84419
2022-08-23T14:23:12.342Z,58.64836
2022-08-23T14:28:14.230Z,57.78479
2022-08-23T14:33:15.949Z,57.34853
2022-08-23T14:38:18.051Z,56.17688
2022-08-23T14:43:19.935Z,60.60474
2022-08-23T14:48:21.497Z,59.51561
2022-08-23T14:53:23.090Z,65.37086
2022-08-23T14:58:24.751Z,60.31039
2022-08-23T15:03:26.423Z,53.99513
2022-08-23T15:08:28.044Z,51.89621
2022-08-23T15:13:33.858Z,49.13326
2022-08-23T15:18:37.173Z,50.51164
2022-08-23T15:23:38.902Z,52.8673
2022-08-23T15:28:40.542Z,48.88296
2022-08-23T15:33:42.137Z,50.23833
2022-08-23T15:38:43.996Z,52.80356
2022-08-23T15:43:45.653Z,52.74106
2022-08-23T15:48:47.234Z,53.32074
2022-08-23T15:53:48.918Z,53.62739
2022-08-23T15:58:50.582Z,54.62204
2022-08-23T16:03:52.285Z,54.21041
2022-08-23T16:08:53.866Z,54.38656
2022-08-23T16:13:55.823Z,56.03815
2022-08-23T16:18:57.518Z,50.30937
2022-08-23T16:23:59.107Z,52.04212
2022-08-23T16:29:00.682Z,49.18484
2022-08-23T16:34:02.504Z,49.98946
2022-08-23T16:39:04.103Z,50.63775
2022-08-23T16:44:05.794Z,48.98805
2022-08-23T16:49:07.387Z,45.0616
2022-08-23T16:54:08.992Z,43.84956
2022-08-23T16:59:10.538Z,42.91673
2022-08-23T17:04:12.163Z,50.41736
2022-08-23T17:09:13.802Z,42.69867
2022-08-23T17:14:15.401Z,46.30587
2022-08-23T17:19:16.974Z,43.17622
2022-08-23T17:24:18.550Z,44.89938
2022-08-23T17:29:20.435Z,43.75271
2022-08-23T17:34:22.076Z,40.34208
2022-08-23T17:39:23.638Z,39.51482
2022-08-23T17:44:25.349Z,36.90535
2022-08-23T17:49:26.985Z,39.71998
2022-08-23T17:54:28.561Z,37.87723
2022-08-23T17:59:30.156Z,36.46969
2022-08-23T18:04:31.857Z,31.06117
2022-08-23T18:09:33.491Z,30.89383
2022-08-23T18:14:35.063Z,31.46022
2022-08-23T18:19:36.653Z,30.82231
2022-08-23T18:24:38.292Z,29.70906
2022-08-23T18:29:39.890Z,27.8895
2022-08-23T18:34:44.583Z,28.46131
2022-08-23T18:39:46.362Z,27.38683
2022-08-23T18:44:47.967Z,25.86922
2022-08-23T18:49:49.730Z,26.68809
2022-08-23T18:54:51.337Z,26.64722
2022-08-23T18:59:53.279Z,24.90486
2022-08-23T19:04:54.898Z,25.69208
2022-08-23T19:09:56.637Z,24.66526
2022-08-23T19:14:58.261Z,24.54398
2022-08-23T19:19:59.830Z,25.60365
2022-08-23T19:25:01.426Z,24.00399
2022-08-23T19:30:03.067Z,23.85291
2022-08-23T19:35:08.250Z,24.71984
2022-08-23T19:40:09.925Z,25.21865
2022-08-23T19:45:11.572Z,22.33514
2022-08-23T19:50:13.177Z,22.34424
2022-08-23T19:55:14.793Z,22.17622
2022-08-23T20:00:19.573Z,19.61518
2022-08-23T20:05:21.482Z,19.03615
2022-08-23T20:10:23.084Z,21.92164
2022-08-23T20:15:24.705Z,20.25505
2022-08-23T20:20:26.389Z,18.41478
2022-08-23T20:25:27.972Z,17.58962
2022-08-23T20:30:29.677Z,17.48954
2022-08-23T20:35:31.263Z,17.09151
2022-08-23T20:40:32.915Z,16.62695
2022-08-23T20:45:34.600Z,16.5976
2022-08-23T20:50:36.196Z,14.68122
2022-08-23T20:55:37.786Z,14.77749
2022-08-23T21:00:39.415Z,17.44729
2022-08-23T21:05:41.067Z,15.27655
2022-08-23T21:10:44.948Z,18.70229
2022-08-23T21:15:47.365Z,18.46621
2022-08-23T21:20:49.014Z,18.16183
2022-08-23T21:25:50.663Z,21.79448
2022-08-23T21:30:52.461Z,22.56154
2022-08-23T21:35:54.339Z,22.66817
2022-08-23T21:40:56.003Z,24.75715
2022-08-23T21:45:57.687Z,24.5586
2022-08-23T21:50:59.294Z,22.82966
2022-08-23T21:56:00.909Z,22.42461
2022-08-23T22:01:02.504Z,24.78673
2022-08-23T22:06:04.112Z,24.79763
2022-08-23T22:11:05.699Z,25.55116
2022-08-23T22:16:07.535Z,26.67018
2022-08-23T22:21:09.216Z,25.91974
2022-08-23T22:26:10.795Z,29.89489
2022-08-23T22:31:12.437Z,28.11796
2022-08-23T22:36:14.164Z,28.18647
2022-08-23T22:41:15.758Z,29.18979
2022-08-23T22:46:17.399Z,22.93222
2022-08-23T22:51:19.065Z,22.17359
2022-08-23T22:56:20.692Z,24.1599
2022-08-23T23:01:22.334Z,21.87977
2022-08-23T23:06:24.237Z,20.70458
2022-08-23T23:11:25.850Z,19.18358
2022-08-23T23:16:27.493Z,19.25993
2022-08-23T23:21:29.277Z,17.43049
2022-08-23T23:26:30.904Z,16.72513
2022-08-23T23:31:32.495Z,16.18913
2022-08-23T23:36:34.091Z,18.00981
2022-08-23T23:41:35.798Z,17.82998
2022-08-23T23:46:37.396Z,17.55265
2022-08-23T23:51:39.153Z,18.8726
2022-08-23T23:56:40.788Z,18.69804
